Montara, CA (94037)

4:59 AM PST on December 06, 2016 (GMT -0800)
roof of house | | Change Station

Elev 203 ft 37.54 °N, 122.51 °W | Updated 24 seconds ago

Clear
Clear
48.2 °F
Feels Like 44 °F
N
10.7
Wind Variable Wind from NW
Gusts 21.0 mph

Today
High -- | Low -- °F
--% Chance of Precip.
Yesterday
High -- | Low -- °F
Precip. -- in
Pressure 30.08 in
Visibility 10.0 miles
Clouds Clear
Windchill 44 °F
Dew Point 40 °F
Humidity 73%
Rainfall 0.00 in
Snow Depth Not available.
7:11 AM 4:51 PM
Waxing Crescent, 41% visible
METAR KHAF 061255Z AUTO 35010G19KT 10SM CLR 09/03 A3008 RMK AO2
Pressure 30.08 in
Visibility 10.0 miles
Clouds Clear
Windchill 44 °F
Dew Point 40 °F
Humidity 73%
Rainfall 0.00 in
Snow Depth Not available.
7:11 AM 4:51 PM
Waxing Crescent, 41% visible
METAR KHAF 061255Z AUTO 35010G19KT 10SM CLR 09/03 A3008 RMK AO2

10-Day Weather Forecast

Almanac

Astronomy

Dec. 06, 2016 Rise Set
Actual Time
Civil Twilight
Nautical Twilight
Astronomical Twilight
Moon
Length of Visible Light
Length of Day
Tomorrow will be .
, % of the Moon is Illuminated

Today's Extremes

State Highs State Lows

Community

WunderPhotos

Upload Photos

1,955,938 photos uploaded!

WunderBlog® & News

Nearby

Air Quality

  Air Quality AQ Index Pollutant
Not available.

Snow Depth

Station Depth Elevation

Earthquake Activity

City Distance Mag. Time & Date
Minimum magnitude displayed is 2.5.

Coastal Water Temperatures

Place Temperature

Stations

Nearby Weather Stations

Station Location Temp. Windchill Dew Point Humidity Wind Precip. Elev Updated Type
                   

Watches & Warnings

There are currently no watches in effect.